createdAt,value
2022-12-19T00:01:36.661Z,15.40
2022-12-19T00:04:08.221Z,15.30
2022-12-19T00:06:35.705Z,15.50
2022-12-19T00:09:02.839Z,15.40
2022-12-19T00:11:29.953Z,15.30
2022-12-19T00:13:57.147Z,15.30
2022-12-19T00:16:25.266Z,15.30
2022-12-19T00:18:55.526Z,15.30
2022-12-19T00:21:23.489Z,15.20
2022-12-19T00:23:50.563Z,15.20
2022-12-19T00:26:18.392Z,15.20
2022-12-19T00:28:46.492Z,15.30
2022-12-19T00:31:13.410Z,15.20
2022-12-19T00:33:43.327Z,15.20
2022-12-19T00:36:11.318Z,15.20
2022-12-19T00:38:38.045Z,15.30
2022-12-19T00:41:11.962Z,15.30
2022-12-19T00:43:39.202Z,15.20
2022-12-19T00:46:07.584Z,15.20
2022-12-19T00:48:34.567Z,15.20
2022-12-19T00:51:02.276Z,15.10
2022-12-19T00:53:29.252Z,15.10
2022-12-19T00:55:55.863Z,15.10
2022-12-19T00:58:22.898Z,15.10
2022-12-19T01:00:49.528Z,15.30
2022-12-19T01:03:16.174Z,15.20
2022-12-19T01:05:42.822Z,15.20
2022-12-19T01:08:10.270Z,15.30
2022-12-19T01:10:37.191Z,15.40
2022-12-19T01:13:03.853Z,15.30
2022-12-19T01:15:30.402Z,15.30
2022-12-19T01:17:56.948Z,15.40
2022-12-19T01:20:29.768Z,15.30
2022-12-19T01:22:57.079Z,15.30
2022-12-19T01:25:25.441Z,15.30
2022-12-19T01:27:54.052Z,15.20
2022-12-19T01:30:20.628Z,15.40
2022-12-19T01:32:47.876Z,15.50
2022-12-19T01:35:21.137Z,15.70
2022-12-19T01:37:49.478Z,15.80
2022-12-19T01:40:16.031Z,15.70
2022-12-19T01:42:42.589Z,15.60
2022-12-19T01:45:11.204Z,15.60
2022-12-19T01:47:47.485Z,15.60
2022-12-19T01:50:23.450Z,15.60
2022-12-19T01:52:51.171Z,15.50
2022-12-19T01:55:17.808Z,15.40
2022-12-19T01:57:44.317Z,15.40
2022-12-19T02:00:11.270Z,15.40
2022-12-19T02:02:39.418Z,15.30
2022-12-19T02:05:06.302Z,15.20
2022-12-19T02:07:33.284Z,15.30
2022-12-19T02:10:00.020Z,15.40
2022-12-19T02:12:28.173Z,15.30
2022-12-19T02:14:56.158Z,15.10
2022-12-19T02:17:52.590Z,15.20
2022-12-19T02:20:42.382Z,15.20
2022-12-19T02:23:28.174Z,15.10
2022-12-19T02:26:07.257Z,15.10
2022-12-19T02:28:52.201Z,15.10
2022-12-19T02:31:32.527Z,15.00
2022-12-19T02:34:04.947Z,15.10
2022-12-19T02:36:32.450Z,15.00
2022-12-19T02:39:10.677Z,15.00
2022-12-19T02:41:43.184Z,15.00
2022-12-19T02:44:17.462Z,15.10
2022-12-19T02:46:44.533Z,15.10
2022-12-19T02:49:12.045Z,15.10
2022-12-19T02:51:42.313Z,15.10
2022-12-19T02:54:09.450Z,15.20
2022-12-19T02:56:38.992Z,15.10
2022-12-19T02:59:11.651Z,15.10
2022-12-19T03:01:39.360Z,15.20
2022-12-19T03:04:24.567Z,15.20
2022-12-19T03:07:09.810Z,15.20
2022-12-19T03:09:40.954Z,15.30
2022-12-19T03:12:17.022Z,15.20
2022-12-19T03:14:45.360Z,15.10
2022-12-19T03:17:11.943Z,15.20
2022-12-19T03:19:39.223Z,15.30
2022-12-19T03:22:06.733Z,15.20
2022-12-19T03:24:33.406Z,15.20
2022-12-19T03:27:05.474Z,15.20
2022-12-19T03:29:32.009Z,15.20
2022-12-19T03:32:00.836Z,15.20
2022-12-19T03:34:32.451Z,15.10
2022-12-19T03:37:01.473Z,15.10
2022-12-19T03:39:28.840Z,15.10
2022-12-19T03:42:15.009Z,15.10
2022-12-19T03:44:42.366Z,15.20
2022-12-19T03:47:20.276Z,15.10
2022-12-19T03:49:47.662Z,15.10
2022-12-19T03:52:20.310Z,15.10
2022-12-19T03:54:54.651Z,15.10
2022-12-19T03:57:28.189Z,15.10
2022-12-19T03:59:57.827Z,15.10
2022-12-19T04:02:24.908Z,15.20
2022-12-19T04:04:57.234Z,15.20
2022-12-19T04:07:24.118Z,15.30
2022-12-19T04:09:51.751Z,15.30
2022-12-19T04:12:19.478Z,15.40
2022-12-19T04:14:46.267Z,15.40
2022-12-19T04:17:25.039Z,15.50
2022-12-19T04:20:31.365Z,15.30
2022-12-19T04:23:19.081Z,15.40
2022-12-19T04:25:47.588Z,15.30
2022-12-19T04:28:46.465Z,15.50
2022-12-19T04:31:14.065Z,15.30
2022-12-19T04:33:40.781Z,15.40
2022-12-19T04:36:07.909Z,15.30
2022-12-19T04:38:34.540Z,15.30
2022-12-19T04:41:01.147Z,15.20
2022-12-19T04:43:27.720Z,15.40
2022-12-19T04:45:57.559Z,15.20
2022-12-19T04:48:24.896Z,15.30
2022-12-19T04:50:51.668Z,15.30
2022-12-19T04:53:18.243Z,15.20
2022-12-19T04:55:44.853Z,15.20
2022-12-19T04:58:11.564Z,15.10
2022-12-19T05:00:38.719Z,15.20
2022-12-19T05:03:05.414Z,15.10
2022-12-19T05:05:32.044Z,15.10
2022-12-19T05:07:58.694Z,15.20
2022-12-19T05:10:25.277Z,15.10
2022-12-19T05:12:53.405Z,15.20
2022-12-19T05:15:19.979Z,15.20
2022-12-19T05:17:46.551Z,15.10
2022-12-19T05:20:13.213Z,15.10
2022-12-19T05:22:39.795Z,15.10
2022-12-19T05:25:06.632Z,15.00
2022-12-19T05:27:33.200Z,15.10
2022-12-19T05:29:59.746Z,15.20
2022-12-19T05:32:26.342Z,15.20
2022-12-19T05:34:52.885Z,15.20
2022-12-19T05:37:19.462Z,15.20
2022-12-19T05:39:46.030Z,15.30
2022-12-19T05:42:12.884Z,15.30
2022-12-19T05:44:39.510Z,15.30
2022-12-19T05:47:06.123Z,15.30
2022-12-19T05:49:32.695Z,15.40
2022-12-19T05:51:59.283Z,15.30
2022-12-19T05:54:25.983Z,15.30
2022-12-19T05:56:52.529Z,15.30
2022-12-19T05:59:19.107Z,15.30
2022-12-19T06:01:45.827Z,15.40
2022-12-19T06:04:12.467Z,15.30
2022-12-19T06:06:39.075Z,15.30
2022-12-19T06:09:05.722Z,15.30
2022-12-19T06:11:32.304Z,15.20
2022-12-19T06:13:58.871Z,15.20
2022-12-19T06:16:25.526Z,15.20
2022-12-19T06:18:52.185Z,15.20
2022-12-19T06:21:20.357Z,15.20
2022-12-19T06:23:47.167Z,15.20
2022-12-19T06:26:19.159Z,15.20
2022-12-19T06:28:47.136Z,15.20
2022-12-19T06:31:14.317Z,15.20
2022-12-19T06:33:41.203Z,15.20
2022-12-19T06:36:12.113Z,15.20
2022-12-19T06:38:38.726Z,15.10
2022-12-19T06:41:24.069Z,15.20
2022-12-19T06:43:53.619Z,15.20
2022-12-19T06:46:20.719Z,15.10
2022-12-19T06:48:47.465Z,15.10
2022-12-19T06:51:14.120Z,15.10
2022-12-19T06:53:40.700Z,15.10
2022-12-19T06:56:07.377Z,15.10
2022-12-19T06:58:34.747Z,15.10
2022-12-19T07:01:01.633Z,15.10
2022-12-19T07:03:36.185Z,15.00
2022-12-19T07:06:03.277Z,15.00
2022-12-19T07:08:29.850Z,15.00
2022-12-19T07:10:56.772Z,15.10
2022-12-19T07:13:23.374Z,15.20
2022-12-19T07:15:50.730Z,15.10
2022-12-19T07:18:17.518Z,15.30
2022-12-19T07:20:45.376Z,15.30
2022-12-19T07:23:14.465Z,15.40
2022-12-19T07:25:41.049Z,15.40
2022-12-19T07:28:08.003Z,15.50
2022-12-19T07:30:34.962Z,15.50
2022-12-19T07:33:01.540Z,15.50
2022-12-19T07:35:28.396Z,15.40
2022-12-19T07:37:55.092Z,15.40
2022-12-19T07:40:22.490Z,15.40
2022-12-19T07:42:49.147Z,15.40
2022-12-19T07:45:16.226Z,15.40
2022-12-19T07:47:42.785Z,15.30
2022-12-19T07:50:09.910Z,15.40
2022-12-19T07:52:36.451Z,15.50
2022-12-19T07:55:03.017Z,15.50
2022-12-19T07:57:29.563Z,15.40
2022-12-19T07:59:56.106Z,15.30
2022-12-19T08:02:22.925Z,15.40
2022-12-19T08:04:50.794Z,15.30
2022-12-19T08:07:17.711Z,15.30
2022-12-19T08:09:44.401Z,15.30
2022-12-19T08:12:10.978Z,15.20
2022-12-19T08:14:37.552Z,15.30
2022-12-19T08:17:21.005Z,15.20
2022-12-19T08:19:48.078Z,15.20
2022-12-19T08:22:14.682Z,15.30
2022-12-19T08:24:41.219Z,15.30
2022-12-19T08:27:07.788Z,15.30
2022-12-19T08:29:34.536Z,15.20
2022-12-19T08:32:01.067Z,15.10
2022-12-19T08:34:27.625Z,15.10
2022-12-19T08:36:54.174Z,15.20
2022-12-19T08:39:20.778Z,15.20
2022-12-19T08:41:47.354Z,15.30
2022-12-19T08:44:13.952Z,15.20
2022-12-19T08:46:44.947Z,15.20
2022-12-19T08:49:14.788Z,15.20
2022-12-19T08:51:41.404Z,15.30
2022-12-19T08:54:08.507Z,15.20
2022-12-19T08:56:41.402Z,15.30
2022-12-19T08:59:12.793Z,15.30
2022-12-19T09:01:40.544Z,15.40
2022-12-19T09:05:10.372Z,15.50
2022-12-19T09:06:53.750Z,15.40
2022-12-19T09:09:20.411Z,15.40
2022-12-19T09:11:48.211Z,15.40
2022-12-19T09:14:15.721Z,15.40
2022-12-19T09:16:48.325Z,15.40
2022-12-19T09:19:16.397Z,15.40
2022-12-19T09:21:43.290Z,15.40
2022-12-19T09:24:10.413Z,15.40
2022-12-19T09:26:41.965Z,15.40
2022-12-19T09:29:20.480Z,15.30
2022-12-19T09:31:51.145Z,15.20
2022-12-19T09:34:23.333Z,15.30
2022-12-19T09:36:50.968Z,15.30
2022-12-19T09:39:18.136Z,15.30
2022-12-19T09:41:44.681Z,15.20
2022-12-19T09:44:11.269Z,15.30
2022-12-19T09:46:43.644Z,15.20
2022-12-19T09:49:17.732Z,15.20
2022-12-19T09:51:48.245Z,15.20
2022-12-19T09:54:15.244Z,15.00
2022-12-19T09:56:45.702Z,15.10
2022-12-19T09:59:26.613Z,15.10
2022-12-19T10:02:16.858Z,15.10
2022-12-19T10:04:48.026Z,15.20
2022-12-19T10:07:52.990Z,15.20
2022-12-19T10:12:35.935Z,15.30
2022-12-19T10:13:13.434Z,15.20
2022-12-19T10:15:46.344Z,15.20
2022-12-19T10:18:41.191Z,15.20
2022-12-19T10:21:50.688Z,15.20
2022-12-19T10:24:36.513Z,15.10
2022-12-19T10:27:09.507Z,15.20
2022-12-19T10:29:42.476Z,15.10
2022-12-19T10:32:27.658Z,15.20
2022-12-19T10:34:54.786Z,15.10
2022-12-19T10:37:40.667Z,15.30
2022-12-19T10:40:27.781Z,15.10
2022-12-19T10:42:58.286Z,15.10
2022-12-19T10:45:32.106Z,15.10
2022-12-19T10:47:58.721Z,15.20
2022-12-19T10:50:26.717Z,15.10
2022-12-19T10:52:54.959Z,15.30
2022-12-19T10:55:32.743Z,15.10
2022-12-19T10:57:59.959Z,15.10
2022-12-19T11:00:27.842Z,15.10
2022-12-19T11:03:13.693Z,15.10
2022-12-19T11:05:51.299Z,15.10
2022-12-19T11:08:25.019Z,15.10
2022-12-19T11:11:45.319Z,15.10
2022-12-19T11:18:49.314Z,15.10
2022-12-19T11:24:10.018Z,15.10
2022-12-19T11:29:19.609Z,15.00
2022-12-19T11:29:32.004Z,15.00
2022-12-19T11:30:38.375Z,15.00
2022-12-19T11:30:47.442Z,14.90
2022-12-19T11:32:14.156Z,15.30
2022-12-19T11:33:46.483Z,15.10
2022-12-19T11:36:31.916Z,15.20
2022-12-19T11:38:59.326Z,15.10
2022-12-19T11:41:32.587Z,15.10
2022-12-19T11:44:11.126Z,15.10
2022-12-19T11:46:46.911Z,15.20
2022-12-19T11:49:13.453Z,15.10
2022-12-19T11:51:44.964Z,15.00
2022-12-19T11:54:17.831Z,15.00
2022-12-19T11:56:44.492Z,15.00
2022-12-19T11:59:17.216Z,15.10
2022-12-19T12:01:43.828Z,15.10
2022-12-19T12:04:33.771Z,15.10
2022-12-19T12:07:02.448Z,15.10
2022-12-19T12:14:26.601Z,15.10
2022-12-19T12:21:52.633Z,15.10
2022-12-19T12:28:32.307Z,15.20
2022-12-19T12:31:14.804Z,15.40
2022-12-19T12:31:23.617Z,15.50
2022-12-19T12:31:42.785Z,15.50
2022-12-19T12:31:48.721Z,15.50
2022-12-19T12:35:16.331Z,15.40
2022-12-19T12:35:19.209Z,15.40
2022-12-19T12:38:11.015Z,15.40
2022-12-19T12:39:25.398Z,15.30
2022-12-19T12:42:05.453Z,15.30
2022-12-19T12:44:35.438Z,15.40
2022-12-19T12:47:20.297Z,15.30
2022-12-19T12:50:04.099Z,15.30
2022-12-19T12:52:35.954Z,15.20
2022-12-19T12:55:03.428Z,15.20
2022-12-19T12:57:29.996Z,15.20
2022-12-19T13:00:15.085Z,15.20
2022-12-19T13:02:43.035Z,15.10
2022-12-19T13:05:28.716Z,15.20
2022-12-19T13:07:56.120Z,15.20
2022-12-19T13:10:29.005Z,15.20
2022-12-19T13:13:14.127Z,15.20
2022-12-19T13:15:45.164Z,15.20
2022-12-19T13:18:13.401Z,15.30
2022-12-19T13:20:42.619Z,15.30
2022-12-19T13:23:21.881Z,15.30
2022-12-19T13:25:51.668Z,15.30
2022-12-19T13:28:21.299Z,15.20
2022-12-19T13:31:21.384Z,15.20
2022-12-19T13:33:55.624Z,15.30
2022-12-19T13:39:51.734Z,15.20
2022-12-19T13:40:08.895Z,15.30
2022-12-19T13:43:10.407Z,15.20
2022-12-19T13:45:39.914Z,15.30
2022-12-19T13:48:13.265Z,15.20
2022-12-19T13:50:40.634Z,15.20
2022-12-19T13:53:26.358Z,15.30
2022-12-19T13:56:00.376Z,15.20
2022-12-19T13:58:29.620Z,15.20
2022-12-19T14:00:58.544Z,15.20
2022-12-19T14:03:37.800Z,15.30
2022-12-19T14:06:19.664Z,15.30
2022-12-19T14:08:47.894Z,15.20
2022-12-19T14:12:18.576Z,15.10
2022-12-19T14:14:44.004Z,15.10
2022-12-19T14:17:14.867Z,15.20
2022-12-19T14:19:43.465Z,15.20
2022-12-19T14:22:15.668Z,15.20
2022-12-19T14:26:06.018Z,15.10
2022-12-19T14:28:25.963Z,15.10
2022-12-19T14:30:55.366Z,15.10
2022-12-19T14:33:44.375Z,15.20
2022-12-19T14:36:25.802Z,15.20
2022-12-19T14:39:24.282Z,15.10
2022-12-19T14:42:03.169Z,15.10
2022-12-19T14:52:35.908Z,15.10
2022-12-19T14:54:04.858Z,15.10
2022-12-19T14:54:06.295Z,15.10
2022-12-19T14:54:22.463Z,15.00
2022-12-19T14:56:33.142Z,15.20
2022-12-19T14:58:59.704Z,15.50
2022-12-19T15:01:27.992Z,15.50
2022-12-19T15:04:52.103Z,15.50
2022-12-19T15:07:06.860Z,15.40
2022-12-19T15:10:59.425Z,15.40
2022-12-19T15:14:51.283Z,15.40
2022-12-19T15:15:55.552Z,15.50
2022-12-19T15:18:34.282Z,15.40
2022-12-19T15:21:02.505Z,15.40
2022-12-19T15:23:29.262Z,15.40
2022-12-19T15:26:06.188Z,15.40
2022-12-19T15:28:40.106Z,15.40
2022-12-19T15:31:12.150Z,15.40
2022-12-19T15:33:59.723Z,15.40
2022-12-19T15:36:25.327Z,15.40
2022-12-19T15:38:51.888Z,15.40
2022-12-19T15:41:22.736Z,15.40
2022-12-19T15:44:03.604Z,15.40
2022-12-19T15:46:31.337Z,15.30
2022-12-19T15:48:57.956Z,15.30
2022-12-19T15:51:24.510Z,15.30
2022-12-19T15:53:51.276Z,15.40
2022-12-19T15:56:31.885Z,15.40
2022-12-19T15:58:59.626Z,15.30
2022-12-19T16:01:26.748Z,15.40
2022-12-19T16:03:54.174Z,15.40
2022-12-19T16:06:21.119Z,15.60
2022-12-19T16:08:47.906Z,15.60
2022-12-19T16:11:24.666Z,15.70
2022-12-19T16:13:53.019Z,15.70
2022-12-19T16:16:19.813Z,15.70
2022-12-19T16:18:47.604Z,15.60
2022-12-19T16:21:27.344Z,15.60
2022-12-19T16:23:57.969Z,15.50
2022-12-19T16:26:27.847Z,15.80
2022-12-19T16:28:54.711Z,15.50
2022-12-19T16:31:23.236Z,15.50
2022-12-19T16:33:51.198Z,15.50
2022-12-19T16:36:17.767Z,15.40
2022-12-19T16:38:44.327Z,15.40
2022-12-19T16:41:19.202Z,15.40
2022-12-19T16:43:45.799Z,15.30
2022-12-19T16:46:19.517Z,15.50
2022-12-19T16:48:46.735Z,15.30
2022-12-19T16:51:27.473Z,15.40
2022-12-19T16:53:54.996Z,15.40
2022-12-19T16:56:24.318Z,15.40
2022-12-19T16:58:51.455Z,15.30
2022-12-19T17:01:18.245Z,15.30
2022-12-19T17:03:45.033Z,15.30
2022-12-19T17:06:13.115Z,15.30
2022-12-19T17:08:39.710Z,15.40
2022-12-19T17:11:07.880Z,15.30
2022-12-19T17:13:34.644Z,15.30
2022-12-19T17:16:01.352Z,15.20
2022-12-19T17:18:35.248Z,15.30
2022-12-19T17:21:01.906Z,15.20
2022-12-19T17:23:29.957Z,15.30
2022-12-19T17:25:56.772Z,15.30
2022-12-19T17:28:23.500Z,15.30
2022-12-19T17:30:57.231Z,15.20
2022-12-19T17:33:26.451Z,15.30
2022-12-19T17:35:53.520Z,15.30
2022-12-19T17:38:20.081Z,15.40
2022-12-19T17:40:46.861Z,15.30
2022-12-19T17:43:13.609Z,15.30
2022-12-19T17:45:40.433Z,15.30
2022-12-19T17:48:13.937Z,15.20
2022-12-19T17:50:41.216Z,15.30
2022-12-19T17:53:13.047Z,15.30
2022-12-19T17:55:39.688Z,15.30
2022-12-19T17:58:06.861Z,15.30
2022-12-19T18:00:33.595Z,15.20
2022-12-19T18:03:02.508Z,15.20
2022-12-19T18:05:31.587Z,15.30
2022-12-19T18:07:58.174Z,15.20
2022-12-19T18:10:26.293Z,15.20
2022-12-19T18:12:52.982Z,15.30
2022-12-19T18:15:19.953Z,15.30
2022-12-19T18:17:48.040Z,15.30
2022-12-19T18:20:22.777Z,15.20
2022-12-19T18:22:53.491Z,15.20
2022-12-19T18:25:24.371Z,15.20
2022-12-19T18:27:51.565Z,15.20
2022-12-19T18:30:18.916Z,15.20
2022-12-19T18:32:48.765Z,15.20
2022-12-19T18:35:16.972Z,15.20
2022-12-19T18:37:43.688Z,15.20
2022-12-19T18:40:20.996Z,15.20
2022-12-19T18:42:50.008Z,15.10
2022-12-19T18:45:18.155Z,15.10
2022-12-19T18:47:51.347Z,15.20
2022-12-19T18:50:20.460Z,15.30
2022-12-19T18:52:48.063Z,15.50
2022-12-19T18:55:19.051Z,15.60
2022-12-19T18:57:46.434Z,15.70
2022-12-19T19:00:23.299Z,15.80
2022-12-19T19:02:52.906Z,15.90
2022-12-19T19:05:21.486Z,15.90
2022-12-19T19:07:48.174Z,15.90
2022-12-19T19:10:16.964Z,15.90
2022-12-19T19:12:43.749Z,16.00
2022-12-19T19:15:10.675Z,15.90
2022-12-19T19:17:37.356Z,15.90
2022-12-19T19:20:05.373Z,15.90
2022-12-19T19:22:32.244Z,15.90
2022-12-19T19:24:59.593Z,15.80
2022-12-19T19:27:26.210Z,15.80
2022-12-19T19:29:52.765Z,15.80
2022-12-19T19:32:19.434Z,15.60
2022-12-19T19:34:46.094Z,15.80
2022-12-19T19:37:13.919Z,15.60
2022-12-19T19:39:40.559Z,15.70
2022-12-19T19:42:07.192Z,15.60
2022-12-19T19:44:33.786Z,15.50
2022-12-19T19:47:00.453Z,15.50
2022-12-19T19:49:27.187Z,15.50
2022-12-19T19:52:00.297Z,15.50
2022-12-19T19:54:29.077Z,15.50
2022-12-19T19:56:55.640Z,15.50
2022-12-19T19:59:22.224Z,15.50
2022-12-19T20:01:49.070Z,15.50
2022-12-19T20:04:15.793Z,15.50
2022-12-19T20:06:42.357Z,15.50
2022-12-19T20:09:08.964Z,15.40
2022-12-19T20:11:35.592Z,15.50
2022-12-19T20:14:04.328Z,15.50
2022-12-19T20:16:30.963Z,15.60
2022-12-19T20:18:57.549Z,15.40
2022-12-19T20:21:24.695Z,15.40
2022-12-19T20:23:51.297Z,15.40
2022-12-19T20:26:17.992Z,15.40
2022-12-19T20:28:48.866Z,15.30
2022-12-19T20:31:17.412Z,15.30
2022-12-19T20:33:45.025Z,15.30
2022-12-19T20:36:12.333Z,15.40
2022-12-19T20:38:39.236Z,15.50
2022-12-19T20:41:06.221Z,15.40
2022-12-19T20:43:33.670Z,15.40
2022-12-19T20:46:01.238Z,15.40
2022-12-19T20:48:27.890Z,15.40
2022-12-19T20:50:58.409Z,15.40
2022-12-19T20:53:25.168Z,15.40
2022-12-19T20:55:58.183Z,15.40
2022-12-19T20:58:26.156Z,15.40
2022-12-19T21:01:12.854Z,15.40
2022-12-19T21:03:40.198Z,15.40
2022-12-19T21:06:07.387Z,15.30
2022-12-19T21:08:34.544Z,15.40
2022-12-19T21:11:01.861Z,15.40
2022-12-19T21:13:28.630Z,15.30
2022-12-19T21:15:56.691Z,15.30
2022-12-19T21:18:26.728Z,15.40
2022-12-19T21:20:53.406Z,15.30
2022-12-19T21:23:20.059Z,15.30
2022-12-19T21:25:46.645Z,15.50
2022-12-19T21:28:13.364Z,15.30
2022-12-19T21:30:39.973Z,15.30
2022-12-19T21:33:06.682Z,15.30
2022-12-19T21:35:34.188Z,15.40
2022-12-19T21:38:00.941Z,15.30
2022-12-19T21:40:27.809Z,15.30
2022-12-19T21:42:54.351Z,15.30
2022-12-19T21:45:20.922Z,15.40
2022-12-19T21:47:47.522Z,15.30
2022-12-19T21:50:14.747Z,15.40
2022-12-19T21:52:41.307Z,15.30
2022-12-19T21:55:08.796Z,15.30
2022-12-19T21:57:39.262Z,15.40
2022-12-19T22:00:06.923Z,15.40
2022-12-19T22:02:33.586Z,15.40
2022-12-19T22:05:00.340Z,15.40
2022-12-19T22:07:27.115Z,15.40
2022-12-19T22:09:53.805Z,15.40
2022-12-19T22:12:20.335Z,15.40
2022-12-19T22:14:46.941Z,15.40
2022-12-19T22:17:13.541Z,15.40
2022-12-19T22:19:40.118Z,15.40
2022-12-19T22:22:06.769Z,15.40
2022-12-19T22:24:33.400Z,15.40
2022-12-19T22:26:59.988Z,15.40
2022-12-19T22:29:26.618Z,15.30
2022-12-19T22:31:53.473Z,15.30
2022-12-19T22:34:21.113Z,15.40
2022-12-19T22:36:48.737Z,15.40
2022-12-19T22:39:17.637Z,15.30
2022-12-19T22:41:44.737Z,15.40
2022-12-19T22:44:19.511Z,15.50
2022-12-19T22:46:46.254Z,15.40
2022-12-19T22:49:13.721Z,15.50
2022-12-19T22:51:40.710Z,15.30
2022-12-19T22:54:07.682Z,15.40
2022-12-19T22:56:35.090Z,15.40
2022-12-19T22:59:03.650Z,15.40
2022-12-19T23:01:32.522Z,15.40
2022-12-19T23:03:59.965Z,15.50
2022-12-19T23:06:27.869Z,15.40
2022-12-19T23:08:54.475Z,15.50
2022-12-19T23:11:22.871Z,15.50
2022-12-19T23:13:49.913Z,15.70
2022-12-19T23:16:16.957Z,15.60
2022-12-19T23:18:43.557Z,15.50
2022-12-19T23:21:19.914Z,15.70
2022-12-19T23:23:47.391Z,15.50
2022-12-19T23:26:16.124Z,15.50
2022-12-19T23:29:01.924Z,15.50
2022-12-19T23:35:06.960Z,15.90
2022-12-19T23:37:51.672Z,15.60
2022-12-19T23:40:18.470Z,15.50
2022-12-19T23:42:45.177Z,15.60
2022-12-19T23:45:11.875Z,15.70
2022-12-19T23:47:38.433Z,15.80
2022-12-19T23:50:07.317Z,15.80
2022-12-19T23:52:33.894Z,15.70
2022-12-19T23:55:00.474Z,15.70
2022-12-19T23:57:27.044Z,15.70
2022-12-19T23:59:53.606Z,15.70
